Data for 03/31/2015

Time Sea-Level Adjusted Pressure Absolute Pressure Temperature Relative Humidity Dew Point   
(mb) (inHg) (mb) (inHg) (C) (F) (%) (C) (F)
00:05 1017 30.03 846 24.98 10.4 50.6 31 -6.1 21
00:10 1017 30.03 846 24.98 9.8 49.7 30 -7 19.5
00:15 1016 30 846 24.98 10 50 30 -6.9 19.5
00:20 1016 30 846 24.98 9.9 49.9 31 -6.6 20.1
00:25 1016 30 846 24.98 9.8 49.6 30 -7.1 19.2
00:30 1016 30 846 24.98 9.8 49.7 31 -6.4 20.4
00:35 1016 30 846 24.98 9.4 49 32 -6.5 20.3
00:40 1016 30 845 24.95 9.2 48.6 32 -6.6 20.2
00:45 1016 30 845 24.95 9.2 48.5 32 -6.9 19.7
00:50 1016 30 845 24.95 9.4 48.9 31 -6.7 20
00:55 1016 30 845 24.95 9.5 49.1 30 -7.1 19.3
01:00 1016 30 845 24.95 9.7 49.5 30 -7 19.4
01:05 1016 30 845 24.95 9.7 49.5 30 -7.2 19.1
01:10 1016 30 845 24.95 9.7 49.5 30 -6.9 19.6
01:15 1016 30 845 24.95 9.7 49.4 30 -7.1 19.2
01:20 1016 30 845 24.95 9.7 49.4 30 -7.2 19.1
01:25 1016 30 845 24.95 9.7 49.5 30 -7 19.4
01:30 1016 30 845 24.95 9.6 49.4 30 -7.1 19.2
01:35 1016 30 845 24.95 9.6 49.2 30 -7.2 19
01:40 1016 30 845 24.95 9.5 49.2 31 -6.8 19.7
01:45 1016 30 845 24.95 9.2 48.5 32 -6.7 19.9
01:50 1016 30 845 24.95 8.9 48.1 33 -6.6 20.1
01:55 1016 30 845 24.95 8.7 47.6 33 -6.9 19.6
02:00 1016 30 845 24.95 8.7 47.6 32 -6.9 19.6
02:05 1016 30 845 24.95 8.8 47.9 32 -7 19.3
02:10 1015 29.97 845 24.95 9.1 48.4 31 -7.1 19.1
02:15 1015 29.97 845 24.95 9.3 48.7 31 -6.9 19.6
02:20 1015 29.97 845 24.95 9.2 48.6 31 -7 19.4
02:25 1015 29.97 845 24.95 9.2 48.6 31 -6.9 19.6
02:30 1015 29.97 844 24.92 9.2 48.6 31 -7 19.4
02:35 1015 29.97 844 24.92 9.1 48.4 31 -6.9 19.5
02:40 1015 29.97 844 24.92 9.1 48.4 31 -7.1 19.2
02:45 1015 29.97 844 24.92 9.3 48.7 31 -7 19.4
02:50 1015 29.97 844 24.92 9.2 48.6 31 -7 19.5
02:55 1015 29.97 844 24.92 9.3 48.8 30 -7.2 19
03:00 1015 29.97 844 24.92 9.5 49.1 30 -7.3 18.9
03:05 1015 29.97 844 24.92 9.6 49.3 30 -7 19.4
03:10 1015 29.97 844 24.92 9.4 49 31 -7 19.3
03:15 1015 29.97 844 24.92 9.3 48.7 31 -7.1 19.2
03:20 1015 29.97 844 24.92 9.4 48.9 30 -7.2 19
03:25 1015 29.97 844 24.92 9.3 48.7 31 -7 19.4
03:30 1015 29.97 844 24.92 9 48.2 31 -7 19.3
03:35 1015 29.97 844 24.92 8.9 48 31 -7.2 19.1
03:40 1014 29.94 844 24.92 8.9 48.1 31 -7.1 19.2
03:45 1014 29.94 844 24.92 8.9 48 32 -7.1 19.2
03:50 1014 29.94 844 24.92 8.9 47.9 30 -7.6 18.3
03:55 1014 29.94 843 24.89 9.1 48.3 31 -7.3 18.8
04:00 1014 29.94 843 24.89 9 48.2 31 -7.2 19
04:05 1014 29.94 843 24.89 8.9 48 32 -7.1 19.3
04:10 1014 29.94 843 24.89 8.9 48.1 30 -7.7 18.1
04:15 1014 29.94 843 24.89 9 48.2 31 -7.4 18.7
04:20 1014 29.94 843 24.89 9 48.3 30 -7.7 18.2
04:25 1014 29.94 843 24.89 9.2 48.6 29 -7.8 18
04:30 1014 29.94 843 24.89 9.3 48.8 29 -7.7 18.2
04:35 1014 29.94 843 24.89 9.3 48.7 29 -7.8 18
04:40 1014 29.94 843 24.89 9.4 48.8 29 -7.9 17.8
04:45 1014 29.94 843 24.89 9.4 48.9 29 -7.7 18.1
04:50 1014 29.94 843 24.89 9.4 48.9 30 -7.5 18.5
04:55 1014 29.94 843 24.89 9.1 48.4 30 -7.7 18.2
05:00 1014 29.94 843 24.89 9.3 48.7 29 -7.9 17.7
05:05 1014 29.94 843 24.89 9.3 48.7 29 -7.8 17.9
05:10 1013 29.91 843 24.89 9.3 48.7 29 -7.9 17.8
05:15 1014 29.94 843 24.89 9.2 48.6 30 -7.7 18.2
05:20 1013 29.91 843 24.89 9.1 48.4 29 -7.8 17.9
05:25 1013 29.91 843 24.89 9 48.3 29 -7.8 17.9
05:30 1013 29.91 843 24.89 9.2 48.5 29 -8 17.6
05:35 1013 29.91 843 24.89 9.1 48.4 29 -7.8 17.9
05:40 1013 29.91 842 24.86 9.1 48.4 29 -7.8 18
05:45 1013 29.91 842 24.86 8.9 48.1 30 -7.6 18.2
05:50 1013 29.91 842 24.86 8.8 47.9 30 -7.8 17.9
05:55 1013 29.91 842 24.86 9 48.1 30 -7.9 17.8
06:00 1013 29.91 842 24.86 9 48.2 29 -7.9 17.7
06:05 1013 29.91 842 24.86 9.2 48.6 28 -8.1 17.4
06:10 1013 29.91 842 24.86 9.4 48.9 28 -8.1 17.3
06:15 1013 29.91 842 24.86 9.4 48.8 28 -8.2 17.2
06:20 1013 29.91 842 24.86 9.6 49.3 28 -7.9 17.8
06:25 1013 29.91 842 24.86 9.6 49.2 28 -7.9 17.8
06:30 1013 29.91 842 24.86 9.7 49.4 28 -8.1 17.4
06:35 1013 29.91 842 24.86 9.9 49.7 27 -8.5 16.7
06:40 1013 29.91 842 24.86 10.2 50.3 28 -7.7 18.2
06:45 1013 29.91 842 24.86 9.7 49.4 28 -7.7 18.1
06:50 1013 29.91 842 24.86 9.7 49.4 28 -7.8 17.9
06:55 1013 29.91 842 24.86 9.5 49.2 30 -7.2 19
07:00 1013 29.91 842 24.86 9.2 48.6 29 -7.7 18.1
07:05 1013 29.91 842 24.86 9.4 48.9 29 -7.9 17.7
07:10 1013 29.91 842 24.86 9.8 49.6 28 -7.6 18.2
07:15 1013 29.91 842 24.86 10 50 26 -8.6 16.5
07:20 1013 29.91 842 24.86 10.7 51.2 26 -8.2 17.2
07:25 1013 29.91 842 24.86 10.9 51.7 25 -8.2 17.2
07:30 1013 29.91 842 24.86 11 51.9 25 -8.1 17.5
07:35 1013 29.91 842 24.86 11.2 52.2 24 -8.4 16.9
07:40 1013 29.91 842 24.86 11.4 52.5 25 -7.7 18.2
07:45 1013 29.91 842 24.86 11.5 52.6 24 -8.5 16.7
07:50 1013 29.91 842 24.86 11.6 52.9 26 -7.4 18.6
07:55 1013 29.91 842 24.86 11.5 52.6 26 -7.2 19
08:00 1013 29.91 842 24.86 11.3 52.4 26 -7.4 18.7
08:05 1013 29.91 842 24.86 11.5 52.7 26 -7.4 18.7
08:10 1012 29.88 842 24.86 11.6 52.9 26 -7 19.3
08:15 1012 29.88 842 24.86 11.7 53.1 26 -7.2 19
08:20 1012 29.88 842 24.86 12 53.6 26 -7.1 19.2
08:25 1012 29.88 842 24.86 12.2 53.9 26 -6.8 19.7
08:30 1012 29.88 841 24.83 12.3 54.2 26 -6.5 20.3
08:35 1012 29.88 841 24.83 12.4 54.3 26 -6.7 20
08:40 1012 29.88 841 24.83 12.6 54.7 26 -6.5 20.3
08:45 1012 29.88 841 24.83 12.8 55 25 -6.5 20.3
08:50 1012 29.88 841 24.83 13 55.5 24 -7 19.4
08:55 1012 29.88 841 24.83 13.5 56.2 24 -6.9 19.6
09:00 1012 29.88 841 24.83 13.8 56.8 22 -7.6 18.3
09:05 1012 29.88 841 24.83 14.1 57.5 21 -7.6 18.2
09:10 1012 29.88 841 24.83 14.4 57.9 21 -7.5 18.5
09:15 1012 29.88 841 24.83 14.6 58.3 21 -7.5 18.6
09:20 1011 29.85 841 24.83 14.9 58.8 20 -7.6 18.4
09:25 1011 29.85 841 24.83 15.2 59.4 20 -7.5 18.5
09:30 1011 29.85 840 24.81 15.4 59.6 20 -7.4 18.7
09:35 1011 29.85 840 24.81 15.5 60 20 -7.5 18.4
09:40 1011 29.85 840 24.81 15.8 60.5 20 -7.3 18.8
09:45 1011 29.85 840 24.81 16.1 60.9 19 -7.7 18.2
09:50 1011 29.85 840 24.81 16.4 61.4 18 -8.1 17.3
09:55 1011 29.85 840 24.81 17 62.5 17 -8 17.6
10:00 1011 29.85 840 24.81 17.5 63.5 15 -9.1 15.7
10:05 1011 29.85 840 24.81 18.4 65.2 14 -9.1 15.7
10:10 1011 29.85 840 24.81 19.6 67.2 12 -10.6 12.9
10:15 1010 29.83 840 24.81 19.6 67.2 12 -10.4 13.3
10:20 1010 29.83 840 24.81 19.4 66.8 12 -10.8 12.6
10:25 1010 29.83 839 24.78 19.2 66.6 12 -11 12.1
10:30 1010 29.83 839 24.78 19.2 66.5 11 -11.4 11.5
10:35 1010 29.83 839 24.78 19.2 66.6 12 -11.1 12
10:40 1010 29.83 839 24.78 19.3 66.7 11 -11.3 11.6
10:45 1010 29.83 839 24.78 19.4 67 11 -11.5 11.3
10:50 1010 29.83 839 24.78 19.3 66.8 12 -11.1 12
10:55 1010 29.83 839 24.78 19.3 66.8 12 -11 12.2
11:00 1010 29.83 839 24.78 19.4 67 12 -10.8 12.5
11:05 1010 29.83 839 24.78 19.5 67.2 12 -10.9 12.4
11:10 1010 29.83 839 24.78 19.5 67.2 12 -10.8 12.5
11:15 1010 29.83 839 24.78 19.8 67.7 13 -9.6 14.7
11:20 1010 29.83 839 24.78 20 68 13 -8.9 16
11:25 1010 29.83 839 24.78 19.9 67.8 14 -8.7 16.3
11:30 1010 29.83 839 24.78 20.6 69 12 -9.8 14.3
11:35 1010 29.83 839 24.78 20.3 68.6 11 -10.7 12.8
11:40 1010 29.83 839 24.78 20.1 68.1 12 -10.7 12.8
11:45 1010 29.83 839 24.78 20 67.9 12 -10.6 12.8
11:50 1009 29.8 839 24.78 19.9 67.8 12 -10.6 12.8
11:55 1009 29.8 839 24.78 19.8 67.6 12 -10.4 13.4
12:00 1009 29.8 839 24.78 19.7 67.4 12 -10.5 13.1
12:05 1009 29.8 838 24.75 20 68.1 12 -10.4 13.3
12:10 1009 29.8 838 24.75 20.7 69.2 11 -10.2 13.6
12:15 1009 29.8 838 24.75 20.5 68.9 11 -11.2 11.8
12:20 1009 29.8 838 24.75 20.3 68.5 11 -10.8 12.6
12:25 1009 29.8 838 24.75 20.1 68.2 11 -10.7 12.7
12:30 1009 29.8 838 24.75 20.2 68.4 11 -10.6 13
12:35 1009 29.8 838 24.75 20.3 68.5 11 -10.9 12.4
12:40 1009 29.8 838 24.75 20.6 69 11 -11 12.3
12:45 1009 29.8 838 24.75 20.4 68.7 12 -10.4 13.3
12:50 1009 29.8 838 24.75 20.3 68.6 11 -10.8 12.6
12:55 1008 29.77 838 24.75 20.1 68.2 11 -10.7 12.7
13:00 1008 29.77 838 24.75 20.4 68.7 11 -11.1 12
13:05 1008 29.77 837 24.72 20.5 68.9 11 -11.1 11.9
13:10 1008 29.77 837 24.72 20.2 68.4 11 -10.9 12.4
13:15 1008 29.77 837 24.72 20.3 68.6 11 -11 12.2
13:20 1008 29.77 837 24.72 20.4 68.7 11 -10.4 13.2
13:25 1008 29.77 837 24.72 20.7 69.3 11 -10.5 13.1
13:30 1008 29.77 837 24.72 20.6 69 12 -10.3 13.5
13:35 1008 29.77 837 24.72 20.5 68.9 11 -10.4 13.3
13:40 1008 29.77 837 24.72 20.8 69.5 12 -10 14
13:45 1008 29.77 837 24.72 20.6 69 11 -10.5 13.1
13:50 1008 29.77 837 24.72 20.2 68.4 12 -9.9 14.2
13:55 1008 29.77 837 24.72 20.1 68.1 12 -10.1 13.8
14:00 1008 29.77 837 24.72 20 68.1 12 -9.8 14.4
14:05 1008 29.77 837 24.72 20 67.9 12 -9.9 14.1
14:10 1008 29.77 837 24.72 20 67.9 13 -9.5 14.8
14:15 1007 29.74 837 24.72 19.7 67.5 13 -9.5 14.8
14:20 1007 29.74 837 24.72 19.6 67.3 13 -9.8 14.4
14:25 1007 29.74 837 24.72 19.3 66.7 14 -9.1 15.6
14:30 1007 29.74 837 24.72 19 66.2 14 -8.8 16.1
14:35 1007 29.74 837 24.72 18.7 65.7 14 -9.1 15.6
14:40 1007 29.74 837 24.72 18.5 65.2 17 -7.3 18.9
14:45 1007 29.74 837 24.72 18.2 64.7 17 -7.5 18.6
14:50 1007 29.74 837 24.72 18.2 64.8 18 -6.4 20.4
14:55 1007 29.74 837 24.72 18.2 64.8 18 -6.5 20.3
15:00 1007 29.74 837 24.72 17.9 64.2 18 -6.5 20.3
15:05 1007 29.74 836 24.69 17.9 64.2 18 -7 19.4
15:10 1007 29.74 836 24.69 17.9 64.3 18 -6.9 19.6
15:15 1007 29.74 836 24.69 17.8 64.1 18 -6.9 19.6
15:20 1007 29.74 836 24.69 17.9 64.1 17 -7.1 19.2
15:25 1007 29.74 836 24.69 18 64.3 15 -8.9 16
15:30 1007 29.74 836 24.69 18.3 64.9 15 -8.4 16.8
15:35 1006 29.71 836 24.69 18.4 65 15 -8.3 17.1
15:40 1006 29.71 835 24.66 18.5 65.3 15 -8.7 16.4
15:45 1006 29.71 835 24.66 18.6 65.5 15 -8.1 17.4
15:50 1006 29.71 835 24.66 18.4 65.1 15 -8.4 16.9
15:55 1006 29.71 835 24.66 18.6 65.4 15 -8.4 16.9
16:00 1006 29.71 835 24.66 18.6 65.5 15 -8.6 16.4
16:05 1006 29.71 835 24.66 18.5 65.4 15 -8.7 16.3
16:10 1006 29.71 835 24.66 18.8 65.8 15 -8.7 16.3
16:15 1006 29.71 835 24.66 18.8 65.9 15 -8.4 16.9
16:20 1006 29.71 835 24.66 19 66.2 15 -8.4 16.9
16:25 1006 29.71 835 24.66 18.9 66.1 14 -8.7 16.3
16:30 1006 29.71 835 24.66 19 66.1 14 -9.1 15.5
16:35 1006 29.71 835 24.66 19 66.2 14 -8.7 16.3
16:40 1006 29.71 835 24.66 19.1 66.5 14 -8.8 16.2
16:45 1006 29.71 835 24.66 19.2 66.6 14 -8.9 15.9
16:50 1006 29.71 835 24.66 19.4 66.9 13 -9.3 15.3
16:55 1006 29.71 835 24.66 19.3 66.7 14 -9.2 15.4
17:00 1006 29.71 835 24.66 19.1 66.3 14 -9 15.9
17:05 1006 29.71 835 24.66 19.1 66.5 14 -9.2 15.4
17:10 1006 29.71 835 24.66 19.1 66.3 14 -8.9 16
17:15 1005 29.68 835 24.66 19.1 66.3 13 -9.5 14.9
17:20 1005 29.68 835 24.66 18.8 65.8 13 -9.9 14.2
17:25 1005 29.68 835 24.66 18.5 65.3 14 -9.5 14.9
17:30 1005 29.68 835 24.66 18.3 65 14 -9.8 14.3
17:35 1005 29.68 835 24.66 18.2 64.8 14 -9.9 14.2
17:40 1005 29.68 835 24.66 18.3 64.9 14 -9.7 14.5
17:45 1006 29.71 835 24.66 18.1 64.6 14 -9.3 15.2
17:50 1006 29.71 835 24.66 17.8 64 15 -9 15.7
17:55 1005 29.68 835 24.66 17.5 63.5 16 -8.8 16.2
18:00 1006 29.71 835 24.66 17.4 63.3 16 -8.8 16.2
18:05 1006 29.71 835 24.66 17.2 62.9 17 -8.2 17.3
18:10 1006 29.71 835 24.66 17.1 62.8 15 -9.4 15
18:15 1006 29.71 835 24.66 17.2 62.9 16 -8.6 16.6
18:20 1006 29.71 835 24.66 17 62.7 16 -8.8 16.2
18:25 1006 29.71 835 24.66 17.1 62.7 15 -9.4 15.1
18:30 1006 29.71 835 24.66 17.1 62.8 16 -8.6 16.6
18:35 1006 29.71 835 24.66 16.9 62.4 19 -7.1 19.2
18:40 1006 29.71 835 24.66 16.6 61.8 19 -6.9 19.5
18:45 1006 29.71 835 24.66 16.3 61.3 22 -5.2 22.6
18:50 1006 29.71 835 24.66 15.9 60.5 24 -4.6 23.8
18:55 1006 29.71 835 24.66 15.9 60.6 23 -4.9 23.2
19:00 1006 29.71 835 24.66 15.7 60.3 21 -6.8 19.8
19:05 1006 29.71 835 24.66 16 60.7 21 -6.1 21
19:10 1006 29.71 835 24.66 15.8 60.4 20 -6.8 19.7
19:15 1006 29.71 835 24.66 15.9 60.6 20 -7.2 19
19:20 1006 29.71 835 24.66 15.9 60.6 19 -7.7 18.2
19:25 1006 29.71 835 24.66 15.9 60.6 20 -7.1 19.2
19:30 1006 29.71 835 24.66 15.7 60.2 23 -5.5 22.2
19:35 1006 29.71 835 24.66 15.4 59.7 20 -7.1 19.2
19:40 1006 29.71 835 24.66 15.6 60.1 22 -6.2 20.8
19:45 1006 29.71 836 24.69 15.3 59.6 28 -3.2 26.2
19:50 1007 29.74 836 24.69 14.1 57.3 35 -1.1 30
19:55 1008 29.77 837 24.72 12.9 55.2 38 -0.9 30.4
20:00 1008 29.77 837 24.72 12 53.6 43 -0.1 31.7
20:05 1009 29.8 838 24.75 10.8 51.5 60 3.4 38.2
20:10 1009 29.8 838 24.75 9 48.2 65 2.9 37.1
20:15 1009 29.8 839 24.78 8.2 46.7 66 2.3 36.2
20:20 1010 29.83 839 24.78 7.8 46.1 65 1.7 35
20:25 1010 29.83 839 24.78 7.5 45.5 67 1.8 35.3
20:30 1010 29.83 839 24.78 7.1 44.7 68 1.6 34.9
20:35 1010 29.83 839 24.78 6.7 44 70 1.6 34.9
20:40 1010 29.83 840 24.81 6.2 43.1 71 1.4 34.5
20:45 1010 29.83 839 24.78 5.8 42.4 74 1.4 34.6
20:50 1010 29.83 840 24.81 5.8 42.5 71 1.1 33.9
20:55 1011 29.85 840 24.81 5.9 42.6 74 1.6 34.8
21:00 1011 29.85 840 24.81 5.8 42.4 75 1.7 35
21:05 1011 29.85 840 24.81 5.8 42.5 74 1.6 34.9
21:10 1011 29.85 840 24.81 6.1 42.9 72 1.3 34.4
21:15 1011 29.85 840 24.81 6.2 43.2 70 1.1 34
21:20 1011 29.85 840 24.81 6.4 43.6 69 1.2 34.2
21:25 1011 29.85 840 24.81 6.6 43.8 67 0.9 33.7
21:30 1011 29.85 840 24.81 6.7 44.1 61 -0.2 31.7
21:35 1011 29.85 840 24.81 6.8 44.2 65 0.7 33.3
21:40 1011 29.85 840 24.81 6.7 44.1 64 0.4 32.7
21:45 1011 29.85 841 24.83 6.8 44.2 64 0.5 32.9
21:50 1011 29.85 841 24.83 6.6 43.9 63 0.1 32.1
21:55 1012 29.88 841 24.83 6.5 43.6 65 0.3 32.6
22:00 1012 29.88 841 24.83 6.2 43.1 70 1.1 34
22:05 1012 29.88 841 24.83 5.5 42 72 1 33.8
22:10 1012 29.88 841 24.83 5.3 41.5 74 1.1 34
22:15 1012 29.88 841 24.83 5 41 75 1 33.8
22:20 1012 29.88 841 24.83 4.8 40.6 76 0.9 33.6
22:25 1012 29.88 841 24.83 4.6 40.2 77 0.9 33.6
22:30 1012 29.88 841 24.83 4.3 39.8 79 1 33.8
22:35 1012 29.88 841 24.83 4.2 39.5 79 0.9 33.6
22:40 1012 29.88 841 24.83 4.1 39.5 79 0.9 33.5
22:45 1012 29.88 841 24.83 4 39.2 81 1.1 34
22:50 1012 29.88 841 24.83 3.9 39 82 1.2 34.1
22:55 1012 29.88 842 24.86 3.5 38.4 83 0.9 33.7
23:00 1013 29.91 842 24.86 3.1 37.6 84 0.7 33.2
23:05 1013 29.91 842 24.86 2.7 36.8 86 0.6 33
23:10 1013 29.91 842 24.86 2.4 36.2 88 0.6 33
23:15 1013 29.91 842 24.86 2.2 36 88 0.4 32.8
23:20 1013 29.91 842 24.86 1.7 35.1 89 0.1 32.3
23:25 1013 29.91 842 24.86 1.2 34.2 91 -0.1 31.8
23:30 1013 29.91 842 24.86 1 33.7 92 -0.3 31.5
23:35 1014 29.94 843 24.89 0.7 33.2 92 -0.4 31.3
23:40 1014 29.94 843 24.89 0.6 33 93 -0.5 31.2
23:45 1013 29.91 843 24.89 0.5 32.8 93 -0.5 31.1
23:50 1013 29.91 842 24.86 0.4 32.7 94 -0.5 31.1
23:55 1013 29.91 843 24.89 0.4 32.6 94 -0.5 31
24:00 1013 29.91 843 24.89 0.3 32.5 94 -0.6 30.9